createdAt,value
2022-09-13T00:00:16.301Z,16.40
2022-09-13T00:03:03.718Z,16.30
2022-09-13T00:05:50.831Z,16.30
2022-09-13T00:08:39.026Z,16.20
2022-09-13T00:11:27.889Z,16.20
2022-09-13T00:14:14.709Z,16.20
2022-09-13T00:17:01.561Z,16.20
2022-09-13T00:19:48.378Z,16.20
2022-09-13T00:22:35.377Z,16.20
2022-09-13T00:25:22.837Z,16.20
2022-09-13T00:28:09.683Z,16.20
2022-09-13T00:30:59.597Z,16.20
2022-09-13T00:33:46.485Z,16.20
2022-09-13T00:36:33.485Z,16.20
2022-09-13T00:39:20.634Z,16.20
2022-09-13T00:42:10.261Z,16.20
2022-09-13T00:44:58.577Z,16.20
2022-09-13T00:47:48.466Z,16.20
2022-09-13T00:50:39.215Z,16.20
2022-09-13T00:53:30.413Z,16.10
2022-09-13T00:56:22.819Z,16.10
2022-09-13T00:59:15.306Z,16.20
2022-09-13T01:02:03.670Z,16.20
2022-09-13T01:04:50.561Z,16.20
2022-09-13T01:07:37.875Z,16.20
2022-09-13T01:10:25.793Z,16.10
2022-09-13T01:13:18.023Z,16.20
2022-09-13T01:16:06.045Z,16.20
2022-09-13T01:18:52.953Z,16.20
2022-09-13T01:22:12.287Z,16.20
2022-09-13T01:25:27.960Z,16.20
2022-09-13T01:28:37.299Z,16.20
2022-09-13T01:31:31.237Z,16.20
2022-09-13T01:34:28.652Z,16.20
2022-09-13T01:37:32.822Z,16.20
2022-09-13T01:40:32.171Z,16.30
2022-09-13T01:43:34.595Z,16.30
2022-09-13T01:46:28.271Z,16.30
2022-09-13T01:49:19.760Z,16.30
2022-09-13T01:52:16.988Z,16.30
2022-09-13T01:55:10.935Z,16.30
2022-09-13T01:58:06.936Z,16.40
2022-09-13T02:01:00.932Z,16.40
2022-09-13T02:03:54.820Z,16.40
2022-09-13T02:06:45.664Z,16.40
2022-09-13T02:09:35.795Z,16.50
2022-09-13T02:12:25.439Z,16.50
2022-09-13T02:15:16.161Z,16.50
2022-09-13T02:18:08.140Z,16.50
2022-09-13T02:21:00.445Z,16.60
2022-09-13T02:23:51.165Z,16.60
2022-09-13T02:26:39.957Z,16.60
2022-09-13T02:29:28.996Z,16.60
2022-09-13T02:32:21.672Z,16.60
2022-09-13T02:35:13.361Z,16.50
2022-09-13T02:38:05.425Z,16.60
2022-09-13T02:40:57.974Z,16.60
2022-09-13T02:43:50.478Z,16.50
2022-09-13T02:47:11.502Z,16.60
2022-09-13T02:50:08.841Z,16.60
2022-09-13T02:53:04.441Z,16.60
2022-09-13T02:55:56.945Z,16.60
2022-09-13T02:58:47.593Z,16.60
2022-09-13T03:01:36.402Z,16.70
2022-09-13T03:04:23.397Z,16.60
2022-09-13T03:07:10.946Z,16.60
2022-09-13T03:10:04.054Z,16.60
2022-09-13T03:13:10.955Z,16.60
2022-09-13T03:16:09.711Z,16.60
2022-09-13T03:19:14.041Z,16.60
2022-09-13T03:22:20.994Z,16.70
2022-09-13T03:25:14.654Z,16.70
2022-09-13T03:28:12.962Z,16.70
2022-09-13T03:31:05.498Z,16.70
2022-09-13T03:33:58.194Z,16.70
2022-09-13T03:36:51.719Z,16.70
2022-09-13T03:39:43.559Z,16.80
2022-09-13T03:42:37.223Z,16.80
2022-09-13T03:45:28.219Z,16.90
2022-09-13T03:48:16.203Z,16.80
2022-09-13T03:51:03.247Z,16.90
2022-09-13T03:53:55.495Z,16.90
2022-09-13T03:56:42.378Z,16.80
2022-09-13T03:59:29.919Z,16.80
2022-09-13T04:02:17.645Z,16.80
2022-09-13T04:05:05.391Z,16.70
2022-09-13T04:07:52.212Z,16.70
2022-09-13T04:10:39.888Z,16.70
2022-09-13T04:13:27.127Z,16.70
2022-09-13T04:16:14.643Z,16.70
2022-09-13T04:19:01.497Z,16.70
2022-09-13T04:21:48.876Z,16.60
2022-09-13T04:24:36.622Z,16.60
2022-09-13T04:27:24.668Z,16.60
2022-09-13T04:30:12.368Z,16.60
2022-09-13T04:32:59.837Z,16.60
2022-09-13T04:35:46.677Z,16.60
2022-09-13T04:38:33.517Z,16.60
2022-09-13T04:41:20.362Z,16.60
2022-09-13T04:44:07.308Z,16.60
2022-09-13T04:46:55.016Z,16.60
2022-09-13T04:49:42.472Z,16.60
2022-09-13T04:52:29.452Z,16.60
2022-09-13T04:55:16.453Z,16.60
2022-09-13T04:58:04.122Z,16.50
2022-09-13T05:00:55.850Z,16.50
2022-09-13T05:03:42.753Z,16.50
2022-09-13T05:06:30.226Z,16.50
2022-09-13T05:09:17.105Z,16.50
2022-09-13T05:12:04.601Z,16.50
2022-09-13T05:14:51.400Z,16.50
2022-09-13T05:17:38.402Z,16.50
2022-09-13T05:20:25.332Z,16.50
2022-09-13T05:23:12.825Z,16.50
2022-09-13T05:26:01.133Z,16.50
2022-09-13T05:28:47.985Z,16.60
2022-09-13T05:31:36.775Z,16.60
2022-09-13T05:34:23.652Z,16.60
2022-09-13T05:37:10.498Z,16.60
2022-09-13T05:40:11.323Z,16.70
2022-09-13T05:42:59.013Z,16.80
2022-09-13T05:45:46.015Z,16.80
2022-09-13T05:48:34.093Z,16.80
2022-09-13T05:51:21.938Z,16.80
2022-09-13T05:54:11.319Z,16.80
2022-09-13T05:56:58.805Z,16.80
2022-09-13T05:59:47.188Z,16.80
2022-09-13T06:02:34.103Z,16.90
2022-09-13T06:05:21.025Z,16.90
2022-09-13T06:08:07.838Z,16.90
2022-09-13T06:10:56.338Z,16.90
2022-09-13T06:13:43.846Z,16.90
2022-09-13T06:16:30.703Z,17.00
2022-09-13T06:19:17.651Z,17.00
2022-09-13T06:22:04.562Z,17.10
2022-09-13T06:24:51.458Z,17.20
2022-09-13T06:27:38.290Z,17.30
2022-09-13T06:30:25.898Z,17.40
2022-09-13T06:33:12.736Z,17.50
2022-09-13T06:36:04.758Z,17.60
2022-09-13T06:38:51.678Z,17.60
2022-09-13T06:41:38.690Z,17.70
2022-09-13T06:44:25.680Z,17.90
2022-09-13T06:47:13.214Z,17.90
2022-09-13T06:50:00.166Z,18.00
2022-09-13T06:52:47.027Z,18.10
2022-09-13T06:55:33.847Z,18.20
2022-09-13T06:58:20.783Z,18.20
2022-09-13T07:01:13.743Z,18.30
2022-09-13T07:04:03.136Z,18.30
2022-09-13T07:06:50.175Z,18.40
2022-09-13T07:09:36.991Z,18.50
2022-09-13T07:12:23.817Z,18.50
2022-09-13T07:15:10.807Z,18.50
2022-09-13T07:17:57.623Z,18.50
2022-09-13T07:20:45.195Z,18.60
2022-09-13T07:23:33.136Z,18.70
2022-09-13T07:26:20.212Z,18.70
2022-09-13T07:29:10.519Z,18.80
2022-09-13T07:31:57.805Z,18.80
2022-09-13T07:34:44.642Z,18.80
2022-09-13T07:37:32.096Z,18.90
2022-09-13T07:40:18.978Z,19.00
2022-09-13T07:43:05.918Z,19.10
2022-09-13T07:46:00.838Z,19.20
2022-09-13T07:48:49.087Z,19.40
2022-09-13T07:51:38.764Z,19.50
2022-09-13T07:54:26.533Z,19.60
2022-09-13T07:57:13.370Z,19.80
2022-09-13T08:00:00.988Z,19.90
2022-09-13T08:02:47.873Z,20.00
2022-09-13T08:05:38.560Z,20.10
2022-09-13T08:08:25.392Z,20.20
2022-09-13T08:11:16.557Z,20.50
2022-09-13T08:14:04.545Z,20.60
2022-09-13T08:16:54.800Z,20.70
2022-09-13T08:19:41.723Z,20.80
2022-09-13T08:22:28.873Z,21.10
2022-09-13T08:25:15.901Z,21.30
2022-09-13T08:28:05.908Z,21.40
2022-09-13T08:30:52.777Z,21.60
2022-09-13T08:33:44.234Z,21.70
2022-09-13T08:36:33.022Z,21.70
2022-09-13T08:39:19.881Z,21.80
2022-09-13T08:42:19.261Z,21.90
2022-09-13T08:45:08.342Z,22.00
2022-09-13T08:47:58.362Z,22.10
2022-09-13T08:50:46.550Z,22.20
2022-09-13T08:53:42.844Z,22.30
2022-09-13T08:56:39.006Z,22.40
2022-09-13T08:59:45.538Z,22.50
2022-09-13T09:02:48.039Z,22.60
2022-09-13T09:05:46.882Z,22.70
2022-09-13T09:08:41.106Z,22.70
2022-09-13T09:11:35.571Z,22.80
2022-09-13T09:14:30.190Z,22.80
2022-09-13T09:17:22.310Z,22.90
2022-09-13T09:20:20.806Z,23.00
2022-09-13T09:23:17.826Z,23.10
2022-09-13T09:26:16.756Z,23.00
2022-09-13T09:29:11.287Z,23.00
2022-09-13T09:32:17.889Z,23.00
2022-09-13T09:35:16.653Z,23.10
2022-09-13T09:38:21.142Z,23.20
2022-09-13T09:41:15.357Z,23.40
2022-09-13T09:44:08.831Z,23.50
2022-09-13T09:46:59.194Z,23.50
2022-09-13T09:50:08.394Z,23.70
2022-09-13T09:53:02.683Z,23.80
2022-09-13T09:55:55.406Z,23.70
2022-09-13T09:58:44.335Z,23.80
2022-09-13T10:01:33.639Z,23.70
2022-09-13T10:04:21.989Z,23.90
2022-09-13T10:07:24.822Z,23.90
2022-09-13T10:10:23.729Z,24.20
2022-09-13T10:13:16.711Z,24.40
2022-09-13T10:16:05.237Z,24.20
2022-09-13T10:18:52.140Z,24.20
2022-09-13T10:21:38.988Z,24.40
2022-09-13T10:24:27.631Z,24.50
2022-09-13T10:27:25.348Z,24.60
2022-09-13T10:30:30.946Z,24.50
2022-09-13T10:33:26.248Z,24.60
2022-09-13T10:36:25.136Z,24.60
2022-09-13T10:39:27.943Z,24.50
2022-09-13T10:42:23.365Z,24.60
2022-09-13T10:45:22.417Z,24.50
2022-09-13T10:48:12.855Z,24.50
2022-09-13T10:51:01.918Z,24.50
2022-09-13T10:53:48.808Z,24.60
2022-09-13T10:56:35.832Z,24.90
2022-09-13T10:59:25.238Z,25.00
2022-09-13T11:02:48.642Z,25.10
2022-09-13T11:05:42.706Z,25.20
2022-09-13T11:08:42.214Z,25.00
2022-09-13T11:11:34.650Z,25.20
2022-09-13T11:14:42.558Z,25.40
2022-09-13T11:17:49.399Z,25.80
2022-09-13T11:20:44.834Z,25.80
2022-09-13T11:23:48.609Z,25.80
2022-09-13T11:26:51.990Z,25.90
2022-09-13T11:29:58.245Z,26.00
2022-09-13T11:33:16.742Z,25.90
2022-09-13T11:36:30.834Z,25.70
2022-09-13T11:39:30.374Z,25.50
2022-09-13T11:42:32.322Z,25.50
2022-09-13T11:45:23.058Z,25.40
2022-09-13T11:48:32.454Z,25.20
2022-09-13T11:51:30.207Z,25.10
2022-09-13T11:54:30.790Z,25.10
2022-09-13T11:57:22.894Z,25.20
2022-09-13T12:00:19.656Z,25.20
2022-09-13T12:03:16.281Z,25.40
2022-09-13T12:06:10.652Z,25.50
2022-09-13T12:09:02.165Z,25.60
2022-09-13T12:11:53.372Z,25.60
2022-09-13T12:14:46.719Z,25.80
2022-09-13T12:17:39.409Z,25.80
2022-09-13T12:20:32.778Z,25.70
2022-09-13T12:23:26.605Z,25.50
2022-09-13T12:26:20.332Z,25.30
2022-09-13T12:29:15.111Z,25.20
2022-09-13T12:32:04.314Z,25.00
2022-09-13T12:34:57.891Z,24.90
2022-09-13T12:38:11.695Z,24.80
2022-09-13T12:41:14.633Z,24.60
2022-09-13T12:44:22.489Z,24.60
2022-09-13T12:47:22.188Z,24.50
2022-09-13T12:50:44.472Z,24.30
2022-09-13T12:54:04.873Z,24.30
2022-09-13T12:57:03.488Z,24.40
2022-09-13T13:00:12.155Z,24.30
2022-09-13T13:03:10.995Z,24.20
2022-09-13T13:06:09.974Z,24.30
2022-09-13T13:09:01.482Z,24.50
2022-09-13T13:11:50.003Z,24.60
2022-09-13T13:14:52.485Z,24.80
2022-09-13T13:17:47.620Z,25.00
2022-09-13T13:21:06.610Z,25.00
2022-09-13T13:24:30.849Z,25.10
2022-09-13T13:27:36.350Z,24.90
2022-09-13T13:30:51.988Z,24.60
2022-09-13T13:33:48.028Z,24.50
2022-09-13T13:36:45.358Z,24.40
2022-09-13T13:39:37.943Z,24.30
2022-09-13T13:42:26.538Z,24.30
2022-09-13T13:45:21.740Z,24.30
2022-09-13T13:48:14.307Z,24.30
2022-09-13T13:51:19.080Z,24.40
2022-09-13T13:54:29.954Z,24.50
2022-09-13T13:57:24.135Z,24.40
2022-09-13T14:00:14.405Z,24.40
2022-09-13T14:03:14.865Z,24.40
2022-09-13T14:06:10.375Z,24.50
2022-09-13T14:09:05.811Z,24.60
2022-09-13T14:12:04.684Z,24.60
2022-09-13T14:15:14.734Z,24.60
2022-09-13T14:18:27.805Z,24.40
2022-09-13T14:21:24.076Z,24.40
2022-09-13T14:24:19.021Z,24.30
2022-09-13T14:27:09.548Z,24.30
2022-09-13T14:29:58.869Z,24.30
2022-09-13T14:32:49.982Z,24.40
2022-09-13T14:35:38.954Z,24.40
2022-09-13T14:38:32.818Z,24.40
2022-09-13T14:41:21.350Z,24.30
2022-09-13T14:44:22.452Z,24.30
2022-09-13T14:47:19.193Z,24.40
2022-09-13T14:50:12.214Z,24.40
2022-09-13T14:53:02.487Z,24.40
2022-09-13T14:55:53.986Z,24.40
2022-09-13T14:58:44.683Z,24.40
2022-09-13T15:01:34.105Z,24.50
2022-09-13T15:04:22.798Z,24.40
2022-09-13T15:07:20.821Z,24.40
2022-09-13T15:10:20.868Z,24.30
2022-09-13T15:13:09.888Z,24.20
2022-09-13T15:15:56.971Z,24.20
2022-09-13T15:18:43.873Z,24.10
2022-09-13T15:21:35.018Z,24.00
2022-09-13T15:24:26.785Z,23.80
2022-09-13T15:27:20.554Z,23.70
2022-09-13T15:30:21.118Z,23.60
2022-09-13T15:33:29.835Z,23.60
2022-09-13T15:36:27.714Z,23.60
2022-09-13T15:39:16.670Z,23.40
2022-09-13T15:42:03.833Z,23.40
2022-09-13T15:44:51.302Z,23.40
2022-09-13T15:47:38.136Z,23.30
2022-09-13T15:50:28.167Z,23.20
2022-09-13T15:53:15.199Z,23.10
2022-09-13T15:56:03.227Z,23.10
2022-09-13T15:58:50.129Z,23.00
2022-09-13T16:01:37.725Z,22.90
2022-09-13T16:04:24.624Z,22.90
2022-09-13T16:07:11.441Z,22.90
2022-09-13T16:09:58.831Z,22.90
2022-09-13T16:12:45.939Z,22.90
2022-09-13T16:15:32.843Z,22.80
2022-09-13T16:18:22.769Z,22.80
2022-09-13T16:21:09.868Z,22.70
2022-09-13T16:23:56.912Z,22.70
2022-09-13T16:26:43.944Z,22.70
2022-09-13T16:29:31.168Z,22.70
2022-09-13T16:32:18.422Z,22.60
2022-09-13T16:35:07.015Z,22.60
2022-09-13T16:37:54.642Z,22.60
2022-09-13T16:40:42.577Z,22.60
2022-09-13T16:43:29.424Z,22.50
2022-09-13T16:46:17.250Z,22.40
2022-09-13T16:49:04.139Z,22.40
2022-09-13T16:51:52.111Z,22.30
2022-09-13T16:54:38.997Z,22.30
2022-09-13T16:57:25.903Z,22.20
2022-09-13T17:00:14.271Z,22.10
2022-09-13T17:03:01.200Z,22.10
2022-09-13T17:05:58.287Z,22.10
2022-09-13T17:08:50.419Z,22.10
2022-09-13T17:11:39.475Z,22.00
2022-09-13T17:14:26.488Z,22.00
2022-09-13T17:17:14.756Z,21.90
2022-09-13T17:20:04.720Z,21.80
2022-09-13T17:22:52.457Z,21.70
2022-09-13T17:25:45.200Z,21.70
2022-09-13T17:28:34.556Z,21.60
2022-09-13T17:31:21.489Z,21.60
2022-09-13T17:34:09.309Z,21.50
2022-09-13T17:36:56.661Z,21.50
2022-09-13T17:39:43.581Z,21.40
2022-09-13T17:42:31.092Z,21.30
2022-09-13T17:45:18.347Z,21.30
2022-09-13T17:48:05.214Z,21.20
2022-09-13T17:50:52.453Z,21.20
2022-09-13T17:53:40.877Z,21.20
2022-09-13T17:56:29.664Z,21.20
2022-09-13T17:59:20.000Z,21.10
2022-09-13T18:02:07.727Z,21.10
2022-09-13T18:04:54.627Z,21.10
2022-09-13T18:07:41.435Z,21.00
2022-09-13T18:10:49.233Z,21.10
2022-09-13T18:13:35.955Z,21.00
2022-09-13T18:16:25.544Z,21.00
2022-09-13T18:19:12.843Z,21.00
2022-09-13T18:22:00.779Z,20.90
2022-09-13T18:24:47.632Z,20.90
2022-09-13T18:27:34.495Z,20.90
2022-09-13T18:30:21.317Z,20.80
2022-09-13T18:33:11.515Z,20.70
2022-09-13T21:45:32.284Z,18.60
2022-09-13T21:48:22.370Z,18.60
2022-09-13T21:51:19.600Z,17.10
2022-09-13T21:54:13.501Z,18.60
2022-09-13T21:57:16.909Z,18.60
2022-09-13T22:00:23.991Z,18.60
2022-09-13T22:03:15.222Z,18.60
2022-09-13T22:06:14.600Z,18.50
2022-09-13T22:09:25.056Z,18.50
2022-09-13T22:15:18.051Z,18.50
2022-09-13T22:18:45.573Z,18.50
2022-09-13T22:21:59.798Z,17.80
2022-09-13T22:28:20.397Z,18.50
2022-09-13T22:31:15.086Z,18.40
2022-09-13T22:34:10.465Z,18.40
2022-09-13T22:37:16.792Z,18.40
2022-09-13T22:40:10.418Z,18.30
2022-09-13T22:46:54.835Z,18.20
2022-09-13T22:49:48.819Z,18.20
2022-09-13T22:52:48.355Z,18.20
2022-09-13T22:59:25.254Z,17.90
2022-09-13T23:26:14.852Z,17.50
2022-09-13T23:29:09.579Z,17.50
2022-09-13T23:46:03.295Z,17.50
2022-09-13T23:52:18.611Z,16.60
2022-09-13T23:58:34.532Z,16.70
